Time;durP1;ratioP1;P1;durP2;ratioP2;P2;SDS_P1;SDS_P2;PMS_P1;PMS_P2;Temp;Humidity;BMP_temperature;BMP_pressure;BME280_temperature;BME280_humidity;BME280_pressure;Samples;Min_cycle;Max_cycle;Signal;HPM_P1;HPM_P2
2022/05/12 00:00:24;;;;;;;;;;;19.30;62.00;;;;;;5072330;28;1333;-70
2022/05/12 00:02:49;;;;;;;;;;;19.30;61.90;;;;;;5072430;28;1373;-70
2022/05/12 00:05:15;;;;;;;;;;;19.30;62.00;;;;;;5072910;28;1347;-70
2022/05/12 00:07:41;;;;;;;;;;;19.30;61.90;;;;;;5054972;28;1334;-70
2022/05/12 00:10:08;;;;;;;;;;;19.30;62.00;;;;;;5072420;28;1269;-70
2022/05/12 00:12:34;;;;;;;;;;;19.30;61.90;;;;;;5072782;28;1317;-70
2022/05/12 00:14:59;;;;;;;;;;;19.30;62.00;;;;;;5072521;28;1965;-70
2022/05/12 00:17:25;;;;;;;;;;;19.30;61.90;;;;;;5072806;28;1293;-70
2022/05/12 00:19:50;;;;;;;;;;;19.30;62.00;;;;;;5098740;28;1288;-70
2022/05/12 00:22:16;;;;;;;;;;;19.30;62.00;;;;;;5072790;28;1383;-70
2022/05/12 00:24:41;;;;;;;;;;;19.30;62.00;;;;;;5072577;28;1184;-70
2022/05/12 00:27:06;;;;;;;;;;;19.30;62.00;;;;;;5086305;28;1182;-70
2022/05/12 00:29:32;;;;;;;;;;;19.30;62.00;;;;;;5092612;28;1149;-69
2022/05/12 00:31:58;;;;;;;;;;;19.30;62.00;;;;;;5076201;28;1444;-70
2022/05/12 00:34:23;;;;;;;;;;;19.30;62.00;;;;;;5072531;28;1906;-70
2022/05/12 00:36:49;;;;;;;;;;;19.30;62.00;;;;;;5072548;28;1257;-70
2022/05/12 00:39:14;;;;;;;;;;;19.30;62.00;;;;;;5072406;28;1308;-70
2022/05/12 00:41:40;;;;;;;;;;;19.30;62.00;;;;;;5072319;28;1301;-69
2022/05/12 00:44:06;;;;;;;;;;;19.30;62.00;;;;;;5071095;28;1345;-69
2022/05/12 00:46:33;;;;;;;;;;;19.30;62.00;;;;;;5085227;28;1262;-70
2022/05/12 00:48:59;;;;;;;;;;;19.30;62.00;;;;;;5074506;28;1310;-69
2022/05/12 00:51:32;;;;;;;;;;;19.30;62.00;;;;;;5074310;28;1145;-70
2022/05/12 00:53:58;;;;;;;;;;;19.30;62.00;;;;;;5092728;28;1878;-70
2022/05/12 00:56:23;;;;;;;;;;;19.30;62.00;;;;;;5074339;28;1329;-70
2022/05/12 00:58:49;;;;;;;;;;;19.30;62.00;;;;;;5074357;28;1386;-70
2022/05/12 01:01:15;;;;;;;;;;;19.30;62.00;;;;;;5073894;28;1305;-70
2022/05/12 01:03:42;;;;;;;;;;;19.30;62.80;;;;;;5068682;28;1263;-70
2022/05/12 01:06:07;;;;;;;;;;;19.30;62.00;;;;;;5058275;28;1318;-70
2022/05/12 01:08:33;;;;;;;;;;;19.30;62.00;;;;;;5075957;28;1311;-70
2022/05/12 01:10:59;;;;;;;;;;;19.30;62.00;;;;;;5075397;28;1277;-70
2022/05/12 01:13:25;;;;;;;;;;;19.30;62.00;;;;;;5057863;28;1295;-70
2022/05/12 01:15:58;;;;;;;;;;;19.30;62.10;;;;;;5057481;28;1957;-70
2022/05/12 01:18:23;;;;;;;;;;;19.30;62.10;;;;;;5074699;28;1310;-70
2022/05/12 01:20:49;;;;;;;;;;;19.30;62.00;;;;;;5066455;28;1070;-70
2022/05/12 01:23:19;;;;;;;;;;;19.30;62.10;;;;;;5075370;28;1344;-70
2022/05/12 01:25:44;;;;;;;;;;;19.30;62.10;;;;;;5077645;28;1283;-70
2022/05/12 01:28:10;;;;;;;;;;;19.30;62.00;;;;;;5098730;28;1333;-70
2022/05/12 01:30:35;;;;;;;;;;;19.30;62.10;;;;;;5084008;28;1380;-70
2022/05/12 01:33:01;;;;;;;;;;;19.30;62.10;;;;;;5079363;28;1564;-70
2022/05/12 01:35:26;;;;;;;;;;;19.30;62.10;;;;;;5075590;28;1959;-70
2022/05/12 01:37:51;;;;;;;;;;;19.30;62.10;;;;;;5057544;28;1349;-70
2022/05/12 01:40:18;;;;;;;;;;;19.30;62.00;;;;;;5057004;28;1255;-70
2022/05/12 01:42:44;;;;;;;;;;;19.30;62.10;;;;;;5074985;28;1269;-70
2022/05/12 01:45:10;;;;;;;;;;;19.30;62.10;;;;;;5057449;28;1139;-70
2022/05/12 01:47:36;;;;;;;;;;;19.30;62.00;;;;;;5057299;28;1490;-70
2022/05/12 01:50:01;;;;;;;;;;;19.30;62.10;;;;;;5074822;28;1340;-70
2022/05/12 01:52:26;;;;;;;;;;;19.30;62.10;;;;;;5057352;28;1373;-70
2022/05/12 01:54:52;;;;;;;;;;;19.30;62.10;;;;;;5074905;28;1954;-70
2022/05/12 01:57:18;;;;;;;;;;;19.30;62.10;;;;;;5074890;28;1337;-71
2022/05/12 01:59:43;;;;;;;;;;;19.30;62.10;;;;;;5070729;28;1318;-70
2022/05/12 02:02:09;;;;;;;;;;;19.30;62.10;;;;;;5095043;28;1245;-70
2022/05/12 02:04:34;;;;;;;;;;;19.30;62.10;;;;;;5094995;28;1365;-70
2022/05/12 02:07:00;;;;;;;;;;;19.30;62.10;;;;;;5095131;28;1314;-70
2022/05/12 02:09:25;;;;;;;;;;;19.30;62.10;;;;;;5077715;28;1136;-70
2022/05/12 02:11:50;;;;;;;;;;;19.30;62.10;;;;;;5086314;28;1179;-71
2022/05/12 02:14:16;;;;;;;;;;;19.30;62.10;;;;;;5082839;28;1969;-69
2022/05/12 02:16:41;;;;;;;;;;;19.30;62.10;;;;;;5082359;28;1223;-69
2022/05/12 02:19:08;;;;;;;;;;;19.30;62.10;;;;;;5068747;28;1275;-68
2022/05/12 02:21:33;;;;;;;;;;;19.30;62.10;;;;;;5082734;28;1266;-69
2022/05/12 02:23:59;;;;;;;;;;;19.30;62.10;;;;;;5066099;28;1370;-70
2022/05/12 02:26:25;;;;;;;;;;;19.30;62.10;;;;;;5084747;28;1200;-71
2022/05/12 02:28:51;;;;;;;;;;;19.30;62.10;;;;;;5084553;28;1203;-70
2022/05/12 02:31:16;;;;;;;;;;;19.30;62.20;;;;;;5082256;28;1239;-70
2022/05/12 02:33:42;;;;;;;;;;;19.30;62.10;;;;;;5089735;28;1897;-67
2022/05/12 02:36:07;;;;;;;;;;;19.30;62.20;;;;;;5094588;28;1266;-67
2022/05/12 02:38:33;;;;;;;;;;;19.30;62.20;;;;;;5094471;28;1109;-67
2022/05/12 02:40:58;;;;;;;;;;;19.30;62.10;;;;;;5094567;28;1248;-67
2022/05/12 02:43:24;;;;;;;;;;;19.30;62.20;;;;;;5092967;28;1293;-67
2022/05/12 02:45:50;;;;;;;;;;;19.30;62.20;;;;;;5094348;28;1324;-67
2022/05/12 02:48:17;;;;;;;;;;;19.30;62.20;;;;;;5076477;28;1366;-67
2022/05/12 02:50:42;;;;;;;;;;;19.30;62.20;;;;;;5094024;28;1340;-67
2022/05/12 02:53:08;;;;;;;;;;;19.30;62.20;;;;;;5076031;28;1265;-67
2022/05/12 02:55:33;;;;;;;;;;;19.30;62.20;;;;;;5093916;28;1922;-69
2022/05/12 02:57:58;;;;;;;;;;;19.30;62.20;;;;;;5094049;28;1329;-69
2022/05/12 03:00:24;;;;;;;;;;;19.30;62.20;;;;;;5093684;28;1003;-69
2022/05/12 03:02:49;;;;;;;;;;;19.30;62.20;;;;;;5093948;28;1628;-69
2022/05/12 03:05:15;;;;;;;;;;;19.30;62.20;;;;;;5094024;28;1342;-69
2022/05/12 03:07:40;;;;;;;;;;;19.30;62.20;;;;;;5075913;28;1266;-69
2022/05/12 03:10:06;;;;;;;;;;;19.30;62.20;;;;;;5075393;28;1305;-69
2022/05/12 03:12:32;;;;;;;;;;;19.30;62.20;;;;;;5093712;28;1312;-69
2022/05/12 03:14:57;;;;;;;;;;;19.30;62.20;;;;;;5093557;28;1981;-69
2022/05/12 03:17:23;;;;;;;;;;;19.30;62.20;;;;;;5075698;28;1326;-69
2022/05/12 03:19:48;;;;;;;;;;;19.30;62.20;;;;;;5073052;28;1412;-69
2022/05/12 03:22:14;;;;;;;;;;;19.30;62.20;;;;;;5073450;28;1245;-70
2022/05/12 03:24:39;;;;;;;;;;;19.30;62.20;;;;;;5055268;28;1302;-69
2022/05/12 03:27:04;;;;;;;;;;;19.30;62.20;;;;;;5086471;28;1153;-70
2022/05/12 03:29:30;;;;;;;;;;;19.30;62.20;;;;;;5094632;28;1313;-70
2022/05/12 03:31:55;;;;;;;;;;;19.30;62.20;;;;;;5059225;28;1399;-70
2022/05/12 03:34:21;;;;;;;;;;;19.30;62.30;;;;;;5072138;28;1902;-69
2022/05/12 03:36:46;;;;;;;;;;;19.30;62.20;;;;;;5055212;28;1334;-69
2022/05/12 03:39:12;;;;;;;;;;;19.30;62.20;;;;;;5073077;28;1388;-68
2022/05/12 03:41:37;;;;;;;;;;;19.30;62.20;;;;;;5072805;28;1107;-68
2022/05/12 03:46:46;;;;;;;;;;;19.30;62.30;;;;;;5057974;28;1271;-70
2022/05/12 03:49:12;;;;;;;;;;;19.30;62.30;;;;;;5073133;28;1271;-69
2022/05/12 03:51:37;;;;;;;;;;;19.30;62.20;;;;;;5072887;28;1281;-70
2022/05/12 03:54:03;;;;;;;;;;;19.30;62.20;;;;;;5054874;28;1906;-70
2022/05/12 03:56:29;;;;;;;;;;;19.30;62.70;;;;;;5071597;28;1259;-69
2022/05/12 03:58:56;;;;;;;;;;;19.30;62.30;;;;;;5072977;28;1219;-69
2022/05/12 04:01:21;;;;;;;;;;;19.30;62.30;;;;;;5072453;28;1237;-69
2022/05/12 04:03:47;;;;;;;;;;;19.30;62.30;;;;;;5072836;28;1330;-71
2022/05/12 04:06:13;;;;;;;;;;;19.30;62.30;;;;;;5054724;28;1333;-71
2022/05/12 04:08:39;;;;;;;;;;;19.30;62.30;;;;;;5071281;28;1351;-70
2022/05/12 04:11:07;;;;;;;;;;;19.30;62.30;;;;;;5054533;28;1401;-71
2022/05/12 04:13:32;;;;;;;;;;;19.30;62.30;;;;;;5073145;28;1314;-70
2022/05/12 04:15:58;;;;;;;;;;;19.30;62.30;;;;;;5071247;28;1897;-70
2022/05/12 04:18:23;;;;;;;;;;;19.30;62.30;;;;;;5075350;28;1106;-69
2022/05/12 04:20:49;;;;;;;;;;;19.30;62.30;;;;;;5072450;28;1320;-69
2022/05/12 04:23:14;;;;;;;;;;;19.30;62.30;;;;;;5072667;28;1273;-68
2022/05/12 04:25:40;;;;;;;;;;;19.30;62.30;;;;;;5056522;28;1453;-68
2022/05/12 04:28:05;;;;;;;;;;;19.30;62.30;;;;;;5077496;28;1412;-69
2022/05/12 04:30:31;;;;;;;;;;;19.30;62.30;;;;;;5065180;28;1308;-69
2022/05/12 04:35:09;;;;;;;;;;;19.30;62.30;;;;;;5073846;28;1571;-68
2022/05/12 04:35:42;;;;;;;;;;;19.30;62.30;;;;;;5058677;28;1910;-70
2022/05/12 04:38:08;;;;;;;;;;;19.30;62.30;;;;;;5059413;28;1370;-68
2022/05/12 04:40:34;;;;;;;;;;;19.30;62.30;;;;;;5077993;28;1304;-71
2022/05/12 04:43:00;;;;;;;;;;;19.30;62.30;;;;;;5077661;28;1347;-69
2022/05/12 04:45:26;;;;;;;;;;;19.30;62.40;;;;;;5078558;28;1250;-71
2022/05/12 04:47:52;;;;;;;;;;;19.30;62.40;;;;;;5059164;28;1332;-68
2022/05/12 04:50:18;;;;;;;;;;;19.30;62.30;;;;;;5058183;28;2150;-68
2022/05/12 04:52:44;;;;;;;;;;;19.30;62.30;;;;;;5090013;28;1546;-67
2022/05/12 04:55:10;;;;;;;;;;;19.30;62.40;;;;;;5069642;28;1910;-68
2022/05/12 04:57:36;;;;;;;;;;;19.30;62.40;;;;;;5105000;28;1516;-69
2022/05/12 05:00:02;;;;;;;;;;;19.30;62.40;;;;;;5078920;28;1701;-68
2022/05/12 05:02:28;;;;;;;;;;;19.30;62.40;;;;;;5075786;28;1380;-68
2022/05/12 05:04:53;;;;;;;;;;;19.30;62.40;;;;;;5093883;28;1696;-68
2022/05/12 05:07:19;;;;;;;;;;;19.30;62.40;;;;;;5074720;28;1621;-69
2022/05/12 05:09:44;;;;;;;;;;;19.30;62.40;;;;;;5076165;28;1723;-69
2022/05/12 05:12:10;;;;;;;;;;;19.30;62.40;;;;;;5089952;28;1404;-70
2022/05/12 05:14:36;;;;;;;;;;;19.30;62.40;;;;;;5108026;28;1967;-69
2022/05/12 05:17:02;;;;;;;;;;;19.30;62.40;;;;;;5076307;28;1221;-69
2022/05/12 05:19:27;;;;;;;;;;;19.30;62.50;;;;;;5076147;28;1433;-69
2022/05/12 05:21:53;;;;;;;;;;;19.30;62.40;;;;;;5057945;28;1683;-69
2022/05/12 05:24:19;;;;;;;;;;;19.30;62.40;;;;;;5075818;28;1650;-69
2022/05/12 05:26:44;;;;;;;;;;;19.30;62.40;;;;;;5086555;28;1401;-69
2022/05/12 05:29:10;;;;;;;;;;;19.30;62.40;;;;;;5068481;28;1304;-68
2022/05/12 05:31:37;;;;;;;;;;;19.30;62.40;;;;;;5084669;28;1549;-68
2022/05/12 05:34:02;;;;;;;;;;;19.30;62.50;;;;;;5088122;28;1901;-69
2022/05/12 05:36:28;;;;;;;;;;;19.30;62.50;;;;;;5075543;28;1134;-69
2022/05/12 05:38:53;;;;;;;;;;;19.30;62.40;;;;;;5075567;28;1773;-69
2022/05/12 05:41:19;;;;;;;;;;;19.30;62.50;;;;;;5065474;28;1833;-69
2022/05/12 05:43:44;;;;;;;;;;;19.30;62.40;;;;;;5087201;28;2058;-68
2022/05/12 05:46:10;;;;;;;;;;;19.30;62.50;;;;;;5089453;28;1507;-69
2022/05/12 05:48:35;;;;;;;;;;;19.30;62.50;;;;;;5090696;28;1611;-71
2022/05/12 05:53:45;;;;;;;;;;;19.30;62.50;;;;;;5075277;28;1957;-70
2022/05/12 05:56:17;;;;;;;;;;;19.30;62.50;;;;;;5075289;28;1103;-66
2022/05/12 05:58:43;;;;;;;;;;;19.30;62.50;;;;;;5075115;28;1729;-68
2022/05/12 06:01:09;;;;;;;;;;;19.30;62.50;;;;;;5074886;28;1391;-68
2022/05/12 06:03:34;;;;;;;;;;;19.30;62.50;;;;;;5057138;28;1587;-70
2022/05/12 06:05:59;;;;;;;;;;;19.30;62.50;;;;;;5057211;28;1417;-70
2022/05/12 06:08:25;;;;;;;;;;;19.30;62.50;;;;;;5057126;28;1671;-69
2022/05/12 06:10:50;;;;;;;;;;;19.30;62.50;;;;;;5049525;28;1373;-65
2022/05/12 06:13:16;;;;;;;;;;;19.30;62.50;;;;;;5094278;28;1423;-68
2022/05/12 06:15:41;;;;;;;;;;;19.30;62.60;;;;;;5076888;28;1969;-69
2022/05/12 06:18:14;;;;;;;;;;;19.30;62.50;;;;;;5097142;28;2218;-72
2022/05/12 06:20:41;;;;;;;;;;;19.30;62.50;;;;;;5083419;28;1152;-70
2022/05/12 06:23:08;;;;;;;;;;;19.30;62.60;;;;;;5078317;28;1320;-71
2022/05/12 06:25:34;;;;;;;;;;;19.30;63.30;;;;;;5086051;28;1137;-69
2022/05/12 06:27:59;;;;;;;;;;;19.30;62.60;;;;;;5075405;28;1905;-69
2022/05/12 06:30:25;;;;;;;;;;;19.30;62.60;;;;;;5084912;28;2152;-70
2022/05/12 06:32:51;;;;;;;;;;;19.30;62.60;;;;;;5085027;28;1795;-67
2022/05/12 06:35:16;;;;;;;;;;;19.30;62.60;;;;;;5092828;28;1969;-68
2022/05/12 06:37:42;;;;;;;;;;;19.30;62.60;;;;;;5074497;28;1389;-68
2022/05/12 06:40:08;;;;;;;;;;;19.30;62.60;;;;;;5079340;28;1235;-68
2022/05/12 06:42:35;;;;;;;;;;;19.30;62.60;;;;;;5078096;28;1086;-67
2022/05/12 06:45:01;;;;;;;;;;;19.30;62.60;;;;;;5108635;28;1270;-68
2022/05/12 06:47:27;;;;;;;;;;;19.30;62.70;;;;;;5086191;28;967;-68
2022/05/12 06:49:52;;;;;;;;;;;19.30;62.60;;;;;;5076975;28;1185;-67
2022/05/12 06:52:18;;;;;;;;;;;19.30;62.70;;;;;;5096808;28;1298;-67
2022/05/12 06:54:44;;;;;;;;;;;19.30;62.70;;;;;;5081305;28;1954;-69
2022/05/12 06:57:10;;;;;;;;;;;19.30;62.70;;;;;;5074275;28;1353;-70
2022/05/12 06:59:36;;;;;;;;;;;19.30;62.70;;;;;;5072323;28;1303;-71
2022/05/12 07:02:01;;;;;;;;;;;19.30;62.70;;;;;;5054167;28;817;-69
2022/05/12 07:04:29;;;;;;;;;;;19.30;62.70;;;;;;5074231;28;1298;-71
2022/05/12 07:06:55;;;;;;;;;;;19.30;62.70;;;;;;5088593;28;1078;-72
2022/05/12 07:09:20;;;;;;;;;;;19.30;62.70;;;;;;5073864;28;1296;-70
2022/05/12 07:11:46;;;;;;;;;;;19.30;62.70;;;;;;5073744;28;1374;-70
2022/05/12 07:14:12;;;;;;;;;;;19.30;62.70;;;;;;5055630;28;1984;-71
2022/05/12 07:16:37;;;;;;;;;;;19.30;62.70;;;;;;5086826;28;1106;-70
2022/05/12 07:19:03;;;;;;;;;;;19.30;62.70;;;;;;5088172;28;1205;-70
2022/05/12 07:27:02;;;;;;;;;;;19.30;62.70;;;;;;5095571;28;840;-69
2022/05/12 07:29:27;;;;;;;;;;;19.30;62.70;;;;;;5095108;28;1348;-68
2022/05/12 07:31:53;;;;;;;;;;;19.30;62.70;;;;;;5082888;28;1314;-68
2022/05/12 07:34:18;;;;;;;;;;;19.30;62.70;;;;;;5073524;28;1934;-68
2022/05/12 07:36:45;;;;;;;;;;;19.30;62.70;;;;;;5086116;28;1083;-69
2022/05/12 07:39:13;;;;;;;;;;;19.30;62.70;;;;;;5055742;28;1114;-69
2022/05/12 07:41:41;;;;;;;;;;;19.30;62.70;;;;;;5086309;28;1130;-69
2022/05/12 07:44:10;;;;;;;;;;;19.30;62.70;;;;;;5055506;28;1319;-69
2022/05/12 07:46:36;;;;;;;;;;;19.30;62.70;;;;;;5073012;28;1269;-69
2022/05/12 07:49:01;;;;;;;;;;;19.30;62.70;;;;;;5073084;28;1330;-70
2022/05/12 07:51:26;;;;;;;;;;;19.30;62.70;;;;;;5072730;28;1162;-69
2022/05/12 07:53:52;;;;;;;;;;;19.30;62.70;;;;;;5061625;28;1874;-69
2022/05/12 07:56:20;;;;;;;;;;;19.30;62.70;;;;;;5093055;28;1324;-69
2022/05/12 07:58:46;;;;;;;;;;;19.30;62.70;;;;;;5073437;28;824;-69
2022/05/12 08:01:12;;;;;;;;;;;19.30;62.70;;;;;;5072769;28;1338;-69
2022/05/12 08:03:38;;;;;;;;;;;19.30;62.70;;;;;;5079860;28;1302;-69
2022/05/12 08:06:03;;;;;;;;;;;19.30;62.70;;;;;;5079267;28;1434;-72
2022/05/12 08:08:29;;;;;;;;;;;19.30;62.70;;;;;;5086413;28;999;-69
2022/05/12 08:10:54;;;;;;;;;;;19.30;62.70;;;;;;5072780;28;1359;-69
2022/05/12 08:13:21;;;;;;;;;;;19.30;62.70;;;;;;5079043;28;1361;-70
2022/05/12 08:15:48;;;;;;;;;;;19.30;62.80;;;;;;5079520;28;1968;-70
2022/05/12 08:18:16;;;;;;;;;;;19.30;62.70;;;;;;5073229;28;1122;-70
2022/05/12 08:20:41;;;;;;;;;;;19.30;62.80;;;;;;5054276;28;1281;-69
2022/05/12 08:23:06;;;;;;;;;;;19.30;62.70;;;;;;5058425;28;1338;-69
2022/05/12 08:25:32;;;;;;;;;;;19.30;62.80;;;;;;5067057;28;1430;-70
2022/05/12 08:27:57;;;;;;;;;;;19.30;62.70;;;;;;5065069;28;1253;-70
2022/05/12 08:30:23;;;;;;;;;;;19.30;62.70;;;;;;5086986;28;1210;-69
2022/05/12 08:32:48;;;;;;;;;;;19.30;62.70;;;;;;5079857;28;1368;-69
2022/05/12 08:35:14;;;;;;;;;;;19.30;62.80;;;;;;5066458;28;1898;-70
2022/05/12 08:37:39;;;;;;;;;;;19.30;62.80;;;;;;5062532;28;1263;-70
2022/05/12 08:40:05;;;;;;;;;;;19.30;62.70;;;;;;5078823;28;1286;-70
2022/05/12 08:42:34;;;;;;;;;;;19.30;62.80;;;;;;5059526;28;1271;-71
2022/05/12 08:45:01;;;;;;;;;;;19.30;62.70;;;;;;5054520;28;1397;-70
2022/05/12 08:47:27;;;;;;;;;;;19.30;62.80;;;;;;5079682;28;1171;-71
2022/05/12 08:49:53;;;;;;;;;;;19.30;62.80;;;;;;5059985;28;1261;-71
2022/05/12 08:52:26;;;;;;;;;;;19.30;62.80;;;;;;5080006;28;1138;-71
2022/05/12 08:55:10;;;;;;;;;;;19.30;62.80;;;;;;5078699;28;1889;-71
2022/05/12 08:57:40;;;;;;;;;;;19.30;62.80;;;;;;5080966;28;1089;-70
2022/05/12 09:00:07;;;;;;;;;;;19.30;62.70;;;;;;5069460;28;1198;-69
2022/05/12 09:02:45;;;;;;;;;;;19.30;62.70;;;;;;5075126;28;1323;-67
2022/05/12 09:05:12;;;;;;;;;;;19.30;62.70;;;;;;5085972;28;1613;-67
2022/05/12 09:07:39;;;;;;;;;;;19.30;62.80;;;;;;5063412;28;1342;-71
2022/05/12 09:10:11;;;;;;;;;;;19.30;62.70;;;;;;5060468;28;1172;-69
2022/05/12 09:12:36;;;;;;;;;;;19.30;62.80;;;;;;5082508;28;1230;-68
2022/05/12 09:15:03;;;;;;;;;;;19.30;62.70;;;;;;5077014;28;1894;-72
2022/05/12 09:17:43;;;;;;;;;;;19.30;62.80;;;;;;5064007;28;1756;-70
2022/05/12 09:20:10;;;;;;;;;;;19.30;62.80;;;;;;5065538;28;1871;-69
2022/05/12 09:22:35;;;;;;;;;;;19.30;62.80;;;;;;5064830;28;1144;-70
2022/05/12 09:25:00;;;;;;;;;;;19.30;62.70;;;;;;5086369;28;1369;-70
2022/05/12 09:27:27;;;;;;;;;;;19.30;62.70;;;;;;5083660;28;1270;-70
2022/05/12 09:29:53;;;;;;;;;;;19.30;62.70;;;;;;5071968;28;1204;-70
2022/05/12 09:32:23;;;;;;;;;;;19.30;62.70;;;;;;5083089;28;1404;-69
2022/05/12 09:35:08;;;;;;;;;;;19.30;62.70;;;;;;5065050;28;1898;-70
2022/05/12 09:37:33;;;;;;;;;;;19.30;62.80;;;;;;5098998;28;1054;-70
2022/05/12 09:40:17;;;;;;;;;;;19.30;62.70;;;;;;5064061;28;1353;-70
2022/05/12 09:42:53;;;;;;;;;;;19.30;62.70;;;;;;5057224;28;1416;-71
2022/05/12 09:45:20;;;;;;;;;;;19.30;62.80;;;;;;5089003;28;1087;-70
2022/05/12 09:47:45;;;;;;;;;;;19.30;62.80;;;;;;5067946;28;1107;-71
2022/05/12 09:50:19;;;;;;;;;;;19.30;62.70;;;;;;5081434;28;1047;-71
2022/05/12 09:52:46;;;;;;;;;;;19.30;62.80;;;;;;5078597;28;1208;-71
2022/05/12 09:55:16;;;;;;;;;;;19.30;62.80;;;;;;5059048;28;1988;-72
2022/05/12 09:58:00;;;;;;;;;;;19.30;62.80;;;;;;5057176;28;1330;-72
2022/05/12 10:00:41;;;;;;;;;;;19.30;62.70;;;;;;5057024;28;1288;-71
2022/05/12 10:08:45;;;;;;;;;;;19.30;62.70;;;;;;5085006;28;1219;-72
2022/05/12 10:11:12;;;;;;;;;;;19.30;62.80;;;;;;5094550;28;1321;-71
2022/05/12 10:13:43;;;;;;;;;;;19.30;62.70;;;;;;5077276;28;1289;-71
2022/05/12 10:16:08;;;;;;;;;;;19.30;62.70;;;;;;5076735;28;1898;-71
2022/05/12 10:18:35;;;;;;;;;;;19.30;62.70;;;;;;5086731;28;1281;-70
2022/05/12 10:21:14;;;;;;;;;;;19.30;62.70;;;;;;5075002;28;1051;-70
2022/05/12 10:23:58;;;;;;;;;;;19.30;62.70;;;;;;5056306;28;1676;-70
2022/05/12 10:26:25;;;;;;;;;;;19.30;62.80;;;;;;5078341;28;2057;-70
2022/05/12 10:28:51;;;;;;;;;;;19.30;62.80;;;;;;5068436;28;2008;-70
2022/05/12 10:31:23;;;;;;;;;;;19.30;62.80;;;;;;5070342;28;1975;-70
2022/05/12 10:34:03;;;;;;;;;;;19.30;62.80;;;;;;5084820;28;1829;-70
2022/05/12 10:36:47;;;;;;;;;;;19.30;62.80;;;;;;5091649;28;1990;-70
2022/05/12 10:39:19;;;;;;;;;;;19.30;62.70;;;;;;5085235;28;1994;-70
2022/05/12 10:41:51;;;;;;;;;;;19.30;62.80;;;;;;5069173;28;2039;-70
2022/05/12 10:44:35;;;;;;;;;;;19.30;62.70;;;;;;5088448;28;1292;-69
2022/05/12 10:47:04;;;;;;;;;;;19.30;62.70;;;;;;5094135;28;1079;-71
2022/05/12 10:49:46;;;;;;;;;;;19.30;62.70;;;;;;5075847;28;1079;-70
2022/05/12 10:52:31;;;;;;;;;;;19.30;62.80;;;;;;5068362;28;2200;-70
2022/05/12 10:55:08;;;;;;;;;;;19.30;62.80;;;;;;5091373;28;1906;-70
2022/05/12 10:57:47;;;;;;;;;;;19.30;62.80;;;;;;5092582;28;1769;-70
2022/05/12 11:00:31;;;;;;;;;;;19.30;62.70;;;;;;5087132;28;967;-71
2022/05/12 11:03:00;;;;;;;;;;;19.30;62.70;;;;;;5075500;28;2224;-70
2022/05/12 11:05:27;;;;;;;;;;;19.30;62.80;;;;;;5070770;28;2071;-71
2022/05/12 11:07:55;;;;;;;;;;;19.30;62.70;;;;;;5073217;28;1130;-71
2022/05/12 11:10:20;;;;;;;;;;;19.30;62.80;;;;;;5072030;28;1308;-71
2022/05/12 11:12:47;;;;;;;;;;;19.30;62.80;;;;;;5087954;28;1390;-70
2022/05/12 11:15:16;;;;;;;;;;;19.30;62.80;;;;;;5089255;28;1918;-70
2022/05/12 11:17:41;;;;;;;;;;;19.30;62.80;;;;;;5067660;28;2074;-71
2022/05/12 11:20:25;;;;;;;;;;;19.30;62.80;;;;;;5075481;28;1210;-71
2022/05/12 11:22:58;;;;;;;;;;;19.30;62.70;;;;;;5089372;28;1292;-71
2022/05/12 11:25:29;;;;;;;;;;;19.30;62.80;;;;;;5085247;28;1171;-69
2022/05/12 11:30:50;;;;;;;;;;;19.30;62.80;;;;;;5074274;28;1069;-69
2022/05/12 11:33:16;;;;;;;;;;;19.30;62.80;;;;;;5078715;28;1593;-71
2022/05/12 11:35:43;;;;;;;;;;;19.30;62.80;;;;;;5081579;28;1951;-65
2022/05/12 11:38:12;;;;;;;;;;;19.30;62.80;;;;;;5081872;28;1467;-66
2022/05/12 11:40:44;;;;;;;;;;;19.30;62.80;;;;;;5080073;28;1290;-66
2022/05/12 11:46:15;;;;;;;;;;;19.30;62.80;;;;;;5066144;28;1052;-68
2022/05/12 11:48:43;;;;;;;;;;;19.30;62.80;;;;;;5075235;28;1326;-69
2022/05/12 11:51:16;;;;;;;;;;;19.30;62.80;;;;;;5064117;28;1083;-71
2022/05/12 11:53:48;;;;;;;;;;;19.30;62.80;;;;;;5068528;28;1267;-71
2022/05/12 11:56:14;;;;;;;;;;;19.30;62.80;;;;;;5079870;28;2040;-73
2022/05/12 11:58:43;;;;;;;;;;;19.30;62.70;;;;;;5083439;28;1287;-71
2022/05/12 12:01:10;;;;;;;;;;;19.30;62.80;;;;;;5068027;28;1107;-71
2022/05/12 12:03:36;;;;;;;;;;;19.30;62.80;;;;;;5068286;28;1296;-71
2022/05/12 12:06:03;;;;;;;;;;;19.30;62.80;;;;;;5055167;28;904;-70
2022/05/12 12:08:29;;;;;;;;;;;19.30;62.80;;;;;;5086828;28;1332;-72
2022/05/12 12:10:54;;;;;;;;;;;19.30;62.70;;;;;;5072578;28;1281;-71
2022/05/12 12:13:23;;;;;;;;;;;19.30;62.80;;;;;;5060702;28;1716;-72
2022/05/12 12:16:02;;;;;;;;;;;19.30;62.80;;;;;;5079626;28;1902;-71
2022/05/12 12:18:30;;;;;;;;;;;19.30;62.80;;;;;;5063108;28;1072;-71
2022/05/12 12:20:57;;;;;;;;;;;19.30;62.80;;;;;;5091253;28;1118;-71
2022/05/12 12:23:22;;;;;;;;;;;19.30;62.80;;;;;;5043286;28;1367;-71
2022/05/12 12:26:17;;;;;;;;;;;19.30;62.80;;;;;;5088361;28;1326;-72
2022/05/12 12:28:45;;;;;;;;;;;19.30;62.80;;;;;;5086365;28;1372;-73
2022/05/12 12:31:29;;;;;;;;;;;19.30;62.80;;;;;;5079636;28;1098;-73
2022/05/12 12:34:02;;;;;;;;;;;19.30;62.80;;;;;;5072554;28;1255;-73
2022/05/12 12:36:34;;;;;;;;;;;19.30;62.80;;;;;;5072502;28;1855;-70
2022/05/12 12:38:59;;;;;;;;;;;19.30;62.80;;;;;;5087265;28;1160;-71
2022/05/12 12:41:31;;;;;;;;;;;19.30;62.80;;;;;;5086717;28;1082;-71
2022/05/12 12:43:57;;;;;;;;;;;19.30;62.80;;;;;;5073235;28;1367;-71
2022/05/12 12:46:26;;;;;;;;;;;19.30;62.80;;;;;;5072408;28;1276;-71
2022/05/12 12:48:53;;;;;;;;;;;19.30;62.80;;;;;;5072407;28;1336;-71
2022/05/12 12:51:35;;;;;;;;;;;19.30;62.80;;;;;;5054307;28;1390;-70
2022/05/12 12:56:48;;;;;;;;;;;19.30;62.80;;;;;;5077240;28;1279;-70
2022/05/12 12:59:14;;;;;;;;;;;19.30;62.80;;;;;;5092737;28;1736;-70
2022/05/12 13:01:44;;;;;;;;;;;19.30;62.80;;;;;;5097882;28;2501;-71
2022/05/12 13:04:09;;;;;;;;;;;19.30;62.80;;;;;;5073503;28;1315;-72
2022/05/12 13:06:36;;;;;;;;;;;19.30;62.80;;;;;;5073651;28;1243;-72
2022/05/12 13:09:03;;;;;;;;;;;19.30;62.80;;;;;;5068701;28;1230;-72
2022/05/12 13:11:28;;;;;;;;;;;19.30;62.80;;;;;;5067155;28;1381;-70
2022/05/12 13:13:54;;;;;;;;;;;19.30;62.80;;;;;;5066550;28;1371;-70
2022/05/12 13:16:20;;;;;;;;;;;19.30;62.80;;;;;;5085465;28;1906;-69
2022/05/12 13:18:46;;;;;;;;;;;19.30;62.80;;;;;;5071107;28;1313;-70
2022/05/12 13:21:16;;;;;;;;;;;19.30;62.80;;;;;;5066788;28;1247;-69
2022/05/12 13:23:44;;;;;;;;;;;19.30;62.80;;;;;;5068806;28;1340;-71
2022/05/12 13:26:09;;;;;;;;;;;19.30;62.80;;;;;;5084823;28;1285;-70
2022/05/12 13:28:37;;;;;;;;;;;19.30;62.80;;;;;;5088562;28;1302;-71
2022/05/12 13:31:24;;;;;;;;;;;19.30;62.80;;;;;;5057757;28;981;-70
2022/05/12 13:33:53;;;;;;;;;;;19.30;62.80;;;;;;5079547;28;1635;-71
2022/05/12 13:36:21;;;;;;;;;;;19.30;62.80;;;;;;5075633;28;1914;-71
2022/05/12 13:38:46;;;;;;;;;;;19.30;62.80;;;;;;5057574;28;1301;-71
2022/05/12 13:41:26;;;;;;;;;;;19.30;62.80;;;;;;5075302;28;1289;-71
2022/05/12 13:43:51;;;;;;;;;;;19.30;62.80;;;;;;5057274;28;1282;-70
2022/05/12 13:46:17;;;;;;;;;;;19.30;62.80;;;;;;5075374;28;1281;-70
2022/05/12 13:49:01;;;;;;;;;;;19.30;62.90;;;;;;5075066;28;1302;-70
2022/05/12 13:51:41;;;;;;;;;;;19.30;62.80;;;;;;5057289;28;1261;-70
2022/05/12 13:54:10;;;;;;;;;;;19.30;62.80;;;;;;5074710;28;1894;-70
2022/05/12 13:56:36;;;;;;;;;;;19.30;62.80;;;;;;5057571;28;1289;-70
2022/05/12 13:59:13;;;;;;;;;;;19.30;62.90;;;;;;5074902;28;1384;-70
2022/05/12 14:01:38;;;;;;;;;;;19.30;62.90;;;;;;5074982;28;1405;-70
2022/05/12 14:04:14;;;;;;;;;;;19.30;62.90;;;;;;5040416;28;1377;-71
2022/05/12 14:07:00;;;;;;;;;;;19.30;62.80;;;;;;5056678;28;1278;-70
2022/05/12 14:09:26;;;;;;;;;;;19.30;62.90;;;;;;5073686;28;1274;-70
2022/05/12 14:12:08;;;;;;;;;;;19.30;62.90;;;;;;5056878;28;1214;-70
2022/05/12 14:20:15;;;;;;;;;;;19.30;62.80;;;;;;5044276;28;1236;-71
2022/05/12 14:22:42;;;;;;;;;;;19.30;62.80;;;;;;5094817;28;1272;-70
2022/05/12 14:25:08;;;;;;;;;;;19.30;62.90;;;;;;5094700;28;1354;-70
2022/05/12 14:27:33;;;;;;;;;;;19.30;63.60;;;;;;5094532;28;1153;-70
2022/05/12 14:29:58;;;;;;;;;;;19.30;62.90;;;;;;5091504;28;1209;-70
2022/05/12 14:32:28;;;;;;;;;;;19.30;62.90;;;;;;5078378;28;1420;-70
2022/05/12 14:34:54;;;;;;;;;;;19.30;62.90;;;;;;5074380;28;1897;-70
2022/05/12 14:37:20;;;;;;;;;;;19.30;62.90;;;;;;5056363;28;1304;-70
2022/05/12 14:39:46;;;;;;;;;;;19.30;62.90;;;;;;5079528;28;1239;-69
2022/05/12 14:42:11;;;;;;;;;;;19.30;62.90;;;;;;5073969;28;1300;-70
2022/05/12 14:44:36;;;;;;;;;;;19.30;62.90;;;;;;5074094;28;1313;-70
2022/05/12 14:47:03;;;;;;;;;;;19.30;62.90;;;;;;5073891;28;1411;-69
2022/05/12 14:49:30;;;;;;;;;;;19.30;62.90;;;;;;5056076;28;1337;-69
2022/05/12 14:51:55;;;;;;;;;;;19.30;62.90;;;;;;5060997;28;1314;-69
2022/05/12 14:54:20;;;;;;;;;;;19.30;62.90;;;;;;5083868;28;1897;-70
2022/05/12 14:56:46;;;;;;;;;;;19.30;62.90;;;;;;5082086;28;1222;-68
2022/05/12 14:59:11;;;;;;;;;;;19.30;62.90;;;;;;5079799;28;1238;-68
2022/05/12 15:01:37;;;;;;;;;;;19.30;62.90;;;;;;5087444;28;1947;-68
2022/05/12 15:04:02;;;;;;;;;;;19.30;62.90;;;;;;5068915;28;1509;-68